Time;durP1;ratioP1;P1;durP2;ratioP2;P2;SDS_P1;SDS_P2;PMS_P1;PMS_P2;Temp;Humidity;BMP_temperature;BMP_pressure;BME280_temperature;BME280_humidity;BME280_pressure;Samples;Min_cycle;Max_cycle;Signal;HPM_P1;HPM_P2
2021/12/23 00:00:36;;;;;;;8.10;7.70;;;2.50;79.90;;;;;;4977706;28;20029;-83
2021/12/23 00:03:02;;;;;;;10.27;9.57;;;2.50;79.80;;;;;;5005960;28;20108;-83
2021/12/23 00:05:28;;;;;;;11.33;9.53;;;2.40;79.70;;;;;;4994593;28;20026;-83
2021/12/23 00:07:54;;;;;;;10.93;10.00;;;2.40;79.80;;;;;;5032917;28;20478;-83
2021/12/23 00:10:21;;;;;;;9.67;9.07;;;2.40;79.70;;;;;;5007636;28;20109;-82
2021/12/23 00:12:47;;;;;;;9.33;8.83;;;2.40;79.80;;;;;;5011186;28;20506;-83
2021/12/23 00:17:57;;;;;;;9.97;9.27;;;2.30;79.80;;;;;;5019823;28;20455;-82
2021/12/23 00:25:36;;;;;;;9.67;8.97;;;2.30;79.90;;;;;;5000317;28;20395;-83
2021/12/23 00:28:03;;;;;;;11.47;10.77;;;2.30;79.90;;;;;;4999220;28;20033;-83
2021/12/23 00:30:29;;;;;;;8.10;7.60;;;2.30;79.90;;;;;;5007729;28;20050;-83
2021/12/23 00:32:56;;;;;;;8.23;7.63;;;2.30;80.00;;;;;;5013847;28;20045;-83
2021/12/23 00:35:23;;;;;;;9.80;8.80;;;2.30;80.00;;;;;;4997899;28;20033;-83
2021/12/23 00:37:55;;;;;;;8.23;7.80;;;2.30;79.90;;;;;;5006984;28;20039;-82
2021/12/23 00:40:22;;;;;;;9.40;8.83;;;2.20;79.90;;;;;;5007715;28;20495;-83
2021/12/23 00:42:48;;;;;;;9.83;9.10;;;2.20;79.90;;;;;;5001205;28;20045;-83
2021/12/23 00:45:14;;;;;;;8.23;7.83;;;2.20;79.90;;;;;;4992479;28;20479;-83
2021/12/23 00:47:40;;;;;;;9.50;9.00;;;2.20;79.80;;;;;;5006015;28;20030;-83
2021/12/23 00:50:06;;;;;;;9.73;9.13;;;2.20;79.90;;;;;;5007534;28;20045;-83
2021/12/23 00:52:36;;;;;;;7.80;7.40;;;2.10;79.80;;;;;;5013583;28;20064;-83
2021/12/23 00:55:03;;;;;;;8.87;8.47;;;2.20;80.00;;;;;;5016190;28;20034;-83
2021/12/23 00:57:30;;;;;;;10.43;9.63;;;2.20;80.00;;;;;;5007383;28;20038;-83
2021/12/23 00:59:58;;;;;;;8.63;8.10;;;2.10;80.80;;;;;;4992959;28;20168;-82
2021/12/23 01:02:28;;;;;;;9.03;8.53;;;2.10;80.00;;;;;;5000401;28;20502;-83
2021/12/23 01:04:54;;;;;;;8.83;8.17;;;2.10;80.00;;;;;;5004139;28;20033;-83
2021/12/23 01:07:20;;;;;;;11.37;10.07;;;2.10;80.00;;;;;;5005218;28;20037;-83
2021/12/23 01:09:46;;;;;;;11.63;9.53;;;2.10;79.90;;;;;;4989588;28;20065;-83
2021/12/23 01:12:15;;;;;;;8.37;7.87;;;2.10;79.90;;;;;;4991500;28;20043;-83
2021/12/23 01:14:53;;;;;;;9.03;8.47;;;2.10;79.90;;;;;;5006134;28;20030;-83
2021/12/23 01:17:30;;;;;;;9.00;8.40;;;2.10;79.90;;;;;;4996026;28;20034;-83
2021/12/23 01:20:00;;;;;;;9.50;8.80;;;2.10;79.90;;;;;;5002532;28;20036;-83
2021/12/23 01:22:26;;;;;;;8.50;8.10;;;2.10;79.90;;;;;;5008362;28;20033;-82
2021/12/23 01:24:52;;;;;;;8.30;7.90;;;2.10;79.90;;;;;;5006396;28;20466;-83
2021/12/23 01:27:18;;;;;;;9.37;8.80;;;2.10;79.90;;;;;;5001201;28;20391;-83
2021/12/23 01:29:44;;;;;;;8.53;8.03;;;2.10;79.90;;;;;;5028959;28;20035;-82
2021/12/23 01:32:10;;;;;;;9.17;8.67;;;2.10;79.90;;;;;;5005284;28;20057;-83
2021/12/23 01:34:36;;;;;;;14.40;9.87;;;2.10;79.90;;;;;;5001088;28;20057;-83
2021/12/23 01:37:03;;;;;;;8.60;8.10;;;2.10;79.90;;;;;;5001994;28;20037;-83
2021/12/23 01:39:30;;;;;;;8.70;8.17;;;2.10;79.90;;;;;;5007877;28;20033;-83
2021/12/23 01:41:56;;;;;;;11.13;10.23;;;2.10;79.90;;;;;;4999865;28;20053;-83
2021/12/23 01:44:22;;;;;;;10.47;9.60;;;2.20;80.00;;;;;;4977615;28;20480;-83
2021/12/23 01:46:48;;;;;;;8.60;8.20;;;2.20;79.90;;;;;;5005116;28;20414;-83
2021/12/23 01:49:15;;;;;;;9.10;8.63;;;2.20;79.90;;;;;;4995071;28;20045;-83
2021/12/23 01:51:41;;;;;;;9.07;8.53;;;2.20;79.90;;;;;;4991637;28;20050;-83
2021/12/23 01:54:07;;;;;;;7.77;7.37;;;2.20;79.90;;;;;;5020603;28;20038;-83
2021/12/23 01:56:33;;;;;;;9.90;9.03;;;2.20;79.80;;;;;;5022373;28;20148;-83
2021/12/23 01:58:59;;;;;;;8.90;8.40;;;2.20;79.70;;;;;;5001799;28;20037;-83
2021/12/23 02:01:25;;;;;;;8.03;7.63;;;2.20;79.70;;;;;;5010612;28;20033;-83
2021/12/23 02:03:52;;;;;;;9.77;8.97;;;2.20;79.70;;;;;;5010356;28;20041;-83
2021/12/23 02:06:18;;;;;;;10.17;9.50;;;2.20;79.70;;;;;;5008656;28;20034;-83
2021/12/23 02:08:44;;;;;;;9.93;9.23;;;2.20;79.80;;;;;;5039775;28;20501;-83
2021/12/23 02:11:10;;;;;;;8.20;7.60;;;2.10;79.70;;;;;;5009963;28;20041;-83
2021/12/23 02:13:37;;;;;;;8.90;8.37;;;2.20;79.80;;;;;;4999508;28;20049;-83
2021/12/23 02:16:03;;;;;;;9.57;9.00;;;2.10;80.10;;;;;;5018549;28;20049;-83
2021/12/23 02:18:29;;;;;;;10.67;9.87;;;2.10;79.90;;;;;;5010657;28;20041;-83
2021/12/23 02:20:56;;;;;;;10.30;9.60;;;2.00;79.90;;;;;;5006063;28;20026;-82
2021/12/23 02:23:23;;;;;;;8.60;8.20;;;2.10;80.00;;;;;;4998232;28;20042;-83
2021/12/23 02:25:49;;;;;;;9.37;8.90;;;2.10;79.90;;;;;;5009878;28;20030;-83
2021/12/23 02:28:16;;;;;;;11.17;10.37;;;2.10;79.90;;;;;;5008356;28;20045;-83
2021/12/23 02:30:42;;;;;;;11.03;10.07;;;2.10;79.90;;;;;;5012505;28;20054;-83
2021/12/23 02:33:09;;;;;;;9.40;8.90;;;2.10;79.80;;;;;;5010468;28;20034;-83
2021/12/23 02:35:35;;;;;;;10.17;9.50;;;2.10;79.80;;;;;;4997353;28;20037;-83
2021/12/23 02:38:01;;;;;;;10.53;9.80;;;2.10;79.80;;;;;;5011247;28;20037;-83
2021/12/23 02:40:31;;;;;;;9.03;8.53;;;2.20;79.90;;;;;;5005894;28;20033;-83
2021/12/23 02:43:06;;;;;;;9.23;8.80;;;2.10;79.80;;;;;;4985682;28;20038;-83
2021/12/23 02:45:32;;;;;;;9.27;8.43;;;2.10;79.70;;;;;;5014876;28;20039;-83
2021/12/23 02:47:58;;;;;;;9.43;8.70;;;2.10;79.80;;;;;;5013126;28;20048;-83
2021/12/23 02:50:24;;;;;;;8.43;7.63;;;2.10;79.80;;;;;;5010924;28;20042;-83
2021/12/23 02:52:50;;;;;;;8.93;8.47;;;2.10;79.80;;;;;;5007870;28;20056;-83
2021/12/23 02:55:20;;;;;;;10.13;9.37;;;2.10;79.80;;;;;;5009643;28;20034;-83
2021/12/23 02:57:46;;;;;;;9.77;8.53;;;2.10;79.90;;;;;;5010410;28;20034;-83
2021/12/23 03:00:12;;;;;;;8.07;7.67;;;2.00;79.90;;;;;;5013987;28;20034;-83
2021/12/23 03:02:39;;;;;;;12.10;9.00;;;2.00;79.90;;;;;;5010747;28;20037;-83
2021/12/23 03:05:06;;;;;;;8.73;8.27;;;2.00;79.90;;;;;;5006604;28;20048;-83
2021/12/23 03:07:32;;;;;;;8.23;7.80;;;1.90;79.90;;;;;;5007023;28;20526;-83
2021/12/23 03:09:58;;;;;;;8.37;7.93;;;1.90;80.10;;;;;;5013001;28;20405;-83
2021/12/23 03:12:24;;;;;;;8.10;7.60;;;1.90;80.10;;;;;;5012554;28;20049;-83
2021/12/23 03:14:50;;;;;;;9.30;8.73;;;1.90;80.10;;;;;;5001178;28;20379;-83
2021/12/23 03:17:16;;;;;;;7.53;7.23;;;1.80;80.10;;;;;;5002376;28;20049;-83
2021/12/23 03:19:42;;;;;;;7.90;7.50;;;1.80;80.20;;;;;;5004927;28;20357;-83
2021/12/23 03:22:08;;;;;;;10.37;8.43;;;1.80;80.20;;;;;;5009785;28;20034;-83
2021/12/23 03:24:34;;;;;;;7.60;7.23;;;1.80;80.20;;;;;;4991623;28;20042;-83
2021/12/23 03:27:01;;;;;;;9.17;8.57;;;1.80;80.30;;;;;;5012487;28;20033;-83
2021/12/23 03:29:27;;;;;;;7.73;7.33;;;1.80;80.20;;;;;;5010726;28;20060;-84
2021/12/23 03:31:53;;;;;;;8.80;7.90;;;1.80;80.20;;;;;;5008535;28;20049;-84
2021/12/23 03:34:19;;;;;;;8.33;7.93;;;1.70;80.20;;;;;;5002841;28;20047;-83
2021/12/23 03:36:45;;;;;;;8.60;8.00;;;1.80;80.20;;;;;;5004438;28;20030;-84
2021/12/23 03:39:11;;;;;;;7.70;7.30;;;1.70;80.20;;;;;;4993697;28;20045;-84
2021/12/23 03:41:37;;;;;;;9.30;8.77;;;1.80;80.20;;;;;;5008965;28;20038;-84
2021/12/23 03:44:04;;;;;;;8.10;7.70;;;1.80;80.20;;;;;;5003308;28;20038;-84
2021/12/23 03:46:30;;;;;;;8.37;7.97;;;1.80;80.20;;;;;;5001886;28;20404;-84
2021/12/23 03:48:56;;;;;;;9.33;8.63;;;1.80;80.30;;;;;;4996888;28;20407;-84
2021/12/23 03:51:22;;;;;;;9.60;9.10;;;1.80;80.20;;;;;;5023065;28;20038;-84
2021/12/23 03:53:48;;;;;;;9.47;8.97;;;1.80;80.20;;;;;;4996761;28;20391;-84
2021/12/23 03:56:15;;;;;;;7.77;7.40;;;1.80;80.10;;;;;;5007056;28;20102;-84
2021/12/23 03:58:41;;;;;;;8.73;8.23;;;1.90;80.20;;;;;;4992271;28;20423;-84
2021/12/23 04:01:07;;;;;;;9.47;8.87;;;1.90;80.10;;;;;;5012768;28;20026;-84
2021/12/23 04:03:33;;;;;;;9.37;8.50;;;1.90;80.10;;;;;;5018614;28;20049;-84
2021/12/23 04:05:59;;;;;;;10.13;8.63;;;1.90;80.10;;;;;;5012741;28;20034;-85
2021/12/23 04:08:25;;;;;;;8.93;8.43;;;1.90;80.10;;;;;;5008423;28;20030;-84
2021/12/23 04:10:51;;;;;;;8.87;8.43;;;1.90;80.00;;;;;;5010383;28;20497;-85
2021/12/23 04:13:17;;;;;;;8.23;7.83;;;1.90;80.00;;;;;;5014548;28;20049;-84
2021/12/23 04:15:44;;;;;;;8.23;7.63;;;1.90;80.00;;;;;;5006279;28;20420;-85
2021/12/23 04:18:10;;;;;;;9.03;8.53;;;1.90;80.10;;;;;;5012457;28;20395;-84
2021/12/23 04:20:46;;;;;;;9.67;9.13;;;1.90;80.10;;;;;;4997192;28;20030;-85
2021/12/23 04:23:12;;;;;;;21.60;9.20;;;1.90;80.10;;;;;;5012620;28;20052;-85
2021/12/23 04:25:38;;;;;;;10.50;9.37;;;1.90;80.10;;;;;;5013093;28;20030;-84
2021/12/23 04:28:05;;;;;;;10.07;9.07;;;1.90;80.00;;;;;;4990509;28;20042;-85
2021/12/23 04:30:31;;;;;;;7.90;7.47;;;1.90;80.00;;;;;;4996880;28;20041;-85
2021/12/23 04:32:58;;;;;;;12.53;8.70;;;1.90;80.00;;;;;;5010731;28;20045;-84
2021/12/23 04:35:24;;;;;;;8.33;7.73;;;1.90;80.00;;;;;;5013292;28;20042;-85
2021/12/23 04:37:50;;;;;;;9.23;8.53;;;1.90;80.00;;;;;;5009919;28;20415;-84
2021/12/23 04:40:16;;;;;;;8.03;7.33;;;1.90;80.10;;;;;;4989082;28;20038;-85
2021/12/23 04:42:43;;;;;;;8.50;7.80;;;1.80;80.10;;;;;;5011463;28;20052;-84
2021/12/23 04:45:09;;;;;;;8.97;8.47;;;1.90;80.20;;;;;;5011321;28;20476;-85
2021/12/23 04:47:35;;;;;;;7.93;7.53;;;1.80;80.10;;;;;;5011405;28;20034;-85
2021/12/23 04:50:03;;;;;;;9.53;8.90;;;1.80;80.20;;;;;;5008833;28;20046;-84
2021/12/23 04:52:29;;;;;;;11.17;10.40;;;1.80;80.20;;;;;;4987473;28;20054;-85
2021/12/23 04:54:55;;;;;;;8.23;7.83;;;1.80;80.20;;;;;;4995338;28;20041;-84
2021/12/23 04:57:22;;;;;;;10.20;9.13;;;1.90;80.30;;;;;;5009459;28;20471;-85
2021/12/23 04:59:48;;;;;;;10.20;9.60;;;1.90;80.30;;;;;;5016868;28;20033;-85
2021/12/23 05:02:14;;;;;;;10.30;9.30;;;1.90;80.10;;;;;;5010719;28;20045;-84
2021/12/23 05:04:40;;;;;;;9.67;8.80;;;1.90;80.10;;;;;;5010791;28;20049;-85
2021/12/23 05:07:06;;;;;;;7.63;7.23;;;1.90;80.10;;;;;;5009358;28;20026;-84
2021/12/23 05:09:32;;;;;;;9.47;8.93;;;1.90;80.10;;;;;;5020834;28;20057;-84
2021/12/23 05:11:58;;;;;;;8.10;7.70;;;1.90;80.10;;;;;;5010095;28;20045;-85
2021/12/23 05:14:24;;;;;;;8.60;8.20;;;1.90;80.10;;;;;;5012504;28;20493;-85
2021/12/23 05:16:50;;;;;;;10.00;9.47;;;1.90;80.10;;;;;;5006975;28;20495;-84
2021/12/23 05:19:16;;;;;;;8.83;8.33;;;1.90;80.10;;;;;;5012035;28;20045;-85
2021/12/23 05:21:42;;;;;;;10.30;9.40;;;1.90;80.20;;;;;;5008589;28;20494;-84
2021/12/23 05:24:09;;;;;;;10.13;9.53;;;1.90;80.10;;;;;;4991283;28;20383;-85
2021/12/23 05:26:35;;;;;;;8.70;8.30;;;1.90;80.80;;;;;;5011217;28;20037;-85
2021/12/23 05:29:01;;;;;;;9.33;8.83;;;2.00;80.10;;;;;;5010237;28;20387;-84
2021/12/23 05:31:27;;;;;;;12.70;10.60;;;2.00;80.10;;;;;;5007686;28;20384;-85
2021/12/23 05:33:54;;;;;;;8.63;8.23;;;2.00;80.00;;;;;;4990218;28;20049;-84
2021/12/23 05:36:20;;;;;;;10.93;9.63;;;2.00;80.00;;;;;;5010912;28;20026;-85
2021/12/23 05:38:46;;;;;;;9.73;9.13;;;2.00;80.00;;;;;;5010590;28;20030;-85
2021/12/23 05:41:12;;;;;;;8.50;8.10;;;2.00;80.00;;;;;;5010871;28;20030;-85
2021/12/23 05:43:38;;;;;;;9.63;9.13;;;2.00;80.00;;;;;;5005413;28;20017;-86
2021/12/23 05:46:04;;;;;;;10.20;9.67;;;2.00;80.10;;;;;;5004875;28;20037;-85
2021/12/23 05:48:30;;;;;;;9.93;9.43;;;2.00;80.10;;;;;;5009300;28;20037;-86
2021/12/23 05:50:56;;;;;;;10.07;9.30;;;2.10;80.10;;;;;;5010966;28;20054;-85
2021/12/23 05:53:22;;;;;;;8.80;8.40;;;2.10;80.10;;;;;;5011911;28;20042;-82
2021/12/23 05:55:48;;;;;;;10.07;9.47;;;2.10;80.00;;;;;;5007305;28;20030;-86
2021/12/23 05:58:14;;;;;;;8.43;8.03;;;2.10;80.00;;;;;;5009626;28;20049;-83
2021/12/23 06:00:40;;;;;;;8.83;8.33;;;2.10;80.00;;;;;;5007438;28;20407;-85
2021/12/23 06:03:07;;;;;;;9.80;9.27;;;2.10;80.00;;;;;;5008499;28;20041;-84
2021/12/23 06:05:33;;;;;;;10.20;9.60;;;2.00;80.00;;;;;;5010100;28;20045;-85
2021/12/23 06:07:59;;;;;;;11.00;9.23;;;2.00;80.00;;;;;;4990847;28;20069;-85
2021/12/23 06:10:25;;;;;;;10.30;9.30;;;2.00;80.10;;;;;;5008848;28;20026;-82
2021/12/23 06:12:51;;;;;;;9.20;8.80;;;2.00;80.10;;;;;;5005871;28;20395;-85
2021/12/23 06:15:17;;;;;;;9.90;9.30;;;2.00;80.10;;;;;;5008798;28;20030;-84
2021/12/23 06:17:44;;;;;;;10.87;10.10;;;2.00;80.20;;;;;;5010006;28;20090;-85
2021/12/23 06:20:11;;;;;;;8.43;8.03;;;2.00;80.10;;;;;;5009125;28;20026;-85
2021/12/23 06:22:37;;;;;;;11.43;10.30;;;2.00;80.10;;;;;;5007695;28;20030;-85
2021/12/23 06:25:05;;;;;;;11.43;10.63;;;2.10;80.10;;;;;;5008132;28;20034;-85
2021/12/23 06:27:31;;;;;;;9.43;8.93;;;2.10;80.10;;;;;;5007696;28;20026;-85
2021/12/23 06:29:57;;;;;;;9.20;8.80;;;2.10;80.10;;;;;;5009934;28;20034;-85
2021/12/23 06:32:23;;;;;;;11.33;10.63;;;2.10;80.10;;;;;;5008016;28;20057;-85
2021/12/23 06:34:49;;;;;;;8.97;8.47;;;2.10;80.10;;;;;;5008066;28;20045;-85
2021/12/23 06:37:16;;;;;;;7.73;7.37;;;2.10;80.10;;;;;;5008886;28;20037;-85
2021/12/23 06:39:44;;;;;;;8.33;7.83;;;2.10;80.00;;;;;;5009522;28;20049;-85
2021/12/23 06:42:10;;;;;;;9.83;9.23;;;2.10;80.10;;;;;;5009071;28;20040;-85
2021/12/23 06:44:36;;;;;;;24.40;8.17;;;2.10;80.10;;;;;;5010937;28;20026;-85
2021/12/23 06:47:02;;;;;;;9.00;8.57;;;2.00;80.10;;;;;;5008359;28;20045;-85
2021/12/23 06:49:31;;;;;;;9.00;8.43;;;2.10;80.10;;;;;;5011228;28;20026;-85
2021/12/23 06:51:59;;;;;;;8.90;8.50;;;2.00;80.20;;;;;;5006339;28;20462;-85
2021/12/23 06:54:25;;;;;;;9.03;8.63;;;2.00;80.20;;;;;;5008977;28;20030;-84
2021/12/23 06:56:51;;;;;;;11.83;10.77;;;2.00;80.20;;;;;;5008692;28;20038;-85
2021/12/23 06:59:17;;;;;;;9.60;9.00;;;2.10;80.30;;;;;;5004975;28;20061;-85
2021/12/23 07:01:47;;;;;;;9.43;8.93;;;2.10;80.20;;;;;;5006265;28;20041;-85
2021/12/23 07:04:16;;;;;;;9.07;8.57;;;2.10;80.20;;;;;;5008099;28;20041;-84
2021/12/23 07:06:58;;;;;;;10.53;9.93;;;2.10;80.10;;;;;;5008415;28;20029;-85
2021/12/23 07:09:24;;;;;;;10.37;9.83;;;2.10;80.10;;;;;;4998396;28;20391;-84
2021/12/23 07:11:50;;;;;;;11.30;10.23;;;2.20;80.20;;;;;;5015783;28;20038;-85
2021/12/23 07:14:16;;;;;;;10.20;9.60;;;2.20;80.10;;;;;;4996494;28;20036;-84
2021/12/23 07:16:42;;;;;;;9.40;8.80;;;2.20;80.10;;;;;;5009085;28;20045;-85
2021/12/23 07:19:08;;;;;;;8.87;8.47;;;2.20;80.10;;;;;;5012720;28;20029;-84
2021/12/23 07:21:34;;;;;;;8.23;7.83;;;2.20;80.20;;;;;;5013502;28;20367;-84
2021/12/23 07:24:01;;;;;;;9.60;9.10;;;2.20;80.20;;;;;;5012040;28;20041;-85
2021/12/23 07:26:27;;;;;;;8.63;8.23;;;2.20;80.20;;;;;;5012623;28;20041;-85
2021/12/23 07:28:53;;;;;;;8.63;8.23;;;2.30;80.20;;;;;;5011713;28;20038;-85
2021/12/23 07:31:19;;;;;;;8.83;8.33;;;2.30;80.20;;;;;;5009832;28;20427;-86
2021/12/23 07:33:45;;;;;;;9.80;9.00;;;2.30;80.10;;;;;;5011329;28;20201;-85
2021/12/23 07:36:11;;;;;;;10.40;9.37;;;2.30;80.10;;;;;;5008617;28;20498;-86
2021/12/23 07:38:37;;;;;;;9.50;9.00;;;2.30;80.20;;;;;;5004352;28;20061;-83
2021/12/23 07:41:03;;;;;;;11.30;10.57;;;2.30;80.20;;;;;;5002386;28;20371;-83
2021/12/23 07:46:02;;;;;;;9.20;8.73;;;2.30;80.10;;;;;;5011254;28;20038;-85
2021/12/23 07:48:28;;;;;;;10.27;9.13;;;2.40;80.20;;;;;;4991885;28;20115;-89
2021/12/23 07:50:54;;;;;;;10.20;9.27;;;2.40;80.10;;;;;;5006549;28;20038;-87
2021/12/23 07:53:20;;;;;;;10.00;9.40;;;2.40;80.10;;;;;;4991283;28;20042;-88
2021/12/23 07:55:47;;;;;;;9.10;8.60;;;2.40;80.10;;;;;;4989777;28;20033;-84
2021/12/23 07:58:13;;;;;;;8.93;8.47;;;2.40;80.10;;;;;;4989246;28;20506;-82
2021/12/23 08:00:39;;;;;;;9.90;9.03;;;2.40;80.10;;;;;;5003279;28;20034;-84
2021/12/23 08:03:06;;;;;;;8.20;7.80;;;2.50;80.20;;;;;;5006268;28;20026;-84
2021/12/23 08:05:33;;;;;;;8.90;8.50;;;2.40;80.10;;;;;;5007169;28;20046;-85
2021/12/23 08:08:00;;;;;;;9.33;8.83;;;2.50;80.20;;;;;;4993784;28;20026;-85
2021/12/23 08:10:26;;;;;;;9.77;9.27;;;2.50;80.20;;;;;;5007891;28;20467;-88
2021/12/23 08:12:52;;;;;;;8.27;7.87;;;2.50;80.10;;;;;;5019514;28;20038;-83
2021/12/23 08:15:19;;;;;;;8.23;7.83;;;2.50;80.10;;;;;;5006895;28;20035;-84
2021/12/23 08:17:45;;;;;;;9.67;8.73;;;2.60;80.10;;;;;;5004988;28;21060;-87
2021/12/23 08:20:11;;;;;;;9.07;8.57;;;2.60;80.10;;;;;;5007857;28;20482;-87
2021/12/23 08:22:38;;;;;;;8.40;8.00;;;2.70;80.10;;;;;;4987974;28;20046;-85
2021/12/23 08:25:04;;;;;;;9.10;8.40;;;2.70;80.00;;;;;;5006943;28;20054;-85
2021/12/23 08:27:31;;;;;;;9.60;9.10;;;2.70;80.10;;;;;;5008133;28;20033;-85
2021/12/23 08:29:57;;;;;;;8.90;8.30;;;2.70;80.00;;;;;;4994690;28;20054;-85
2021/12/23 08:32:23;;;;;;;9.67;8.97;;;2.80;80.00;;;;;;4986227;28;20045;-86
2021/12/23 08:34:49;;;;;;;9.77;9.17;;;2.80;80.00;;;;;;5005419;28;20072;-84
2021/12/23 08:37:15;;;;;;;9.70;9.20;;;2.90;80.00;;;;;;5033746;28;20034;-84
2021/12/23 08:39:42;;;;;;;9.53;9.03;;;2.90;79.90;;;;;;5011344;28;20026;-82
2021/12/23 08:42:09;;;;;;;9.90;9.30;;;3.00;79.90;;;;;;4998682;28;20510;-84
2021/12/23 08:44:35;;;;;;;11.00;10.20;;;3.00;79.90;;;;;;4990916;28;20038;-80
2021/12/23 08:47:01;;;;;;;9.97;9.47;;;3.10;80.70;;;;;;4997642;28;20042;-81
2021/12/23 08:49:27;;;;;;;8.67;8.27;;;3.10;79.90;;;;;;4990226;28;20073;-81
2021/12/23 08:51:54;;;;;;;9.03;8.53;;;3.20;80.00;;;;;;5000120;28;20407;-81
2021/12/23 08:54:20;;;;;;;10.13;9.33;;;3.30;80.00;;;;;;5029402;28;20061;-81
2021/12/23 08:56:46;;;;;;;8.40;8.00;;;3.40;79.80;;;;;;4995269;28;20030;-80
2021/12/23 08:59:12;;;;;;;8.90;8.47;;;3.40;79.70;;;;;;5004599;28;20502;-83
2021/12/23 09:01:40;;;;;;;9.83;9.33;;;3.50;79.70;;;;;;4994044;28;20034;-79
2021/12/23 09:04:06;;;;;;;9.50;9.00;;;3.50;79.70;;;;;;5005259;28;20053;-80
2021/12/23 09:06:32;;;;;;;9.57;9.07;;;3.60;80.40;;;;;;4991233;28;20038;-82
2021/12/23 09:08:58;;;;;;;9.83;9.13;;;3.60;79.60;;;;;;5004428;28;20041;-82
2021/12/23 09:11:25;;;;;;;9.90;8.93;;;3.70;79.60;;;;;;5009952;28;20037;-82
2021/12/23 09:13:51;;;;;;;9.60;9.10;;;3.80;79.60;;;;;;5006314;28;20038;-82
2021/12/23 09:16:18;;;;;;;9.97;9.37;;;3.90;79.90;;;;;;5009441;28;20038;-81
2021/12/23 09:18:44;;;;;;;10.60;9.90;;;4.10;79.70;;;;;;5001169;28;20474;-82
2021/12/23 09:21:12;;;;;;;11.07;10.37;;;4.30;79.50;;;;;;5000997;28;20041;-82
2021/12/23 09:23:39;;;;;;;10.00;9.50;;;4.40;79.40;;;;;;5006064;28;20031;-82
2021/12/23 09:26:09;;;;;;;11.80;10.77;;;4.40;79.40;;;;;;5008102;28;20034;-82
2021/12/23 09:34:05;;;;;;;10.27;9.77;;;4.60;79.50;;;;;;5033175;28;20061;-79
2021/12/23 09:36:31;;;;;;;10.33;9.83;;;4.70;79.60;;;;;;4989656;28;20038;-79
2021/12/23 09:38:57;;;;;;;11.83;10.73;;;4.80;79.80;;;;;;5004658;28;20407;-79
2021/12/23 09:41:24;;;;;;;10.20;9.60;;;4.90;79.70;;;;;;4994384;28;20049;-79
2021/12/23 09:43:51;;;;;;;10.97;10.17;;;5.00;79.60;;;;;;5001276;28;20037;-79
2021/12/23 09:46:20;;;;;;;11.33;10.70;;;5.10;79.50;;;;;;5009549;28;20395;-80
2021/12/23 09:48:47;;;;;;;9.90;9.30;;;5.20;79.40;;;;;;5008442;28;20031;-79
2021/12/23 09:51:15;;;;;;;9.47;8.87;;;5.30;79.40;;;;;;5009799;28;20022;-80
2021/12/23 09:53:44;;;;;;;10.03;9.10;;;5.40;79.30;;;;;;5038442;28;20316;-81
2021/12/23 09:56:10;;;;;;;9.43;8.90;;;5.50;79.20;;;;;;5011995;28;20414;-78
2021/12/23 09:58:36;;;;;;;10.33;9.47;;;5.60;79.10;;;;;;5010069;28;20026;-82
2021/12/23 10:01:03;;;;;;;10.13;8.83;;;5.70;79.10;;;;;;5009100;28;20045;-83
2021/12/23 10:03:29;;;;;;;11.80;9.13;;;5.90;79.10;;;;;;5009025;28;20041;-78
2021/12/23 10:05:57;;;;;;;10.07;9.27;;;6.00;79.10;;;;;;4995836;28;20044;-82
2021/12/23 10:08:24;;;;;;;9.47;8.73;;;6.10;79.00;;;;;;4993024;28;20026;-78
2021/12/23 10:33:13;;;;;;;7.93;7.53;;;9.00;74.60;;;;;;5010264;28;20050;-83
2021/12/23 10:38:42;;;;;;;8.50;8.00;;;9.40;74.40;;;;;;5010877;28;20475;-82
2021/12/23 10:41:14;;;;;;;9.43;8.88;;;9.40;74.50;;;;;;5012181;28;20022;-81
2021/12/23 10:43:44;;;;;;;10.20;9.45;;;9.40;75.00;;;;;;5013213;28;20029;-83
2021/12/23 10:46:41;;;;;;;8.70;8.30;;;9.40;75.60;;;;;;5009758;28;20037;-84
2021/12/23 10:49:29;;;;;;;9.60;9.02;;;9.40;76.20;;;;;;5006054;28;20293;-84
2021/12/23 10:52:05;;;;;;;12.60;11.50;;;9.60;76.20;;;;;;5011262;28;20029;-84
2021/12/23 11:00:19;;;;;;;8.32;7.93;;;9.90;76.00;;;;;;5012063;28;20034;-81
2021/12/23 11:03:12;;;;;;;9.63;9.13;;;9.90;76.30;;;;;;5021741;28;20042;-80
2021/12/23 11:05:45;;;;;;;9.27;8.82;;;9.90;76.70;;;;;;5011397;28;20037;-81
2021/12/23 11:35:46;;;;;;;10.02;9.52;;;11.70;75.10;;;;;;5016002;28;20408;-85
2021/12/23 11:38:40;;;;;;;11.07;10.50;;;11.90;75.10;;;;;;5018888;28;20045;-83
2021/12/23 11:44:06;;;;;;;11.00;10.07;;;11.90;75.60;;;;;;4996288;28;20054;-87
2021/12/23 11:46:42;;;;;;;10.10;9.60;;;12.10;75.50;;;;;;4992227;28;20053;-85
2021/12/23 11:49:10;;;;;;;10.43;9.93;;;12.20;75.40;;;;;;4990557;28;20546;-83
2021/12/23 11:54:11;;;;;;;11.23;10.52;;;12.50;75.10;;;;;;5009454;28;20065;-86
2021/12/23 11:57:03;;;;;;;12.05;11.45;;;12.60;75.00;;;;;;5009527;28;20032;-86
2021/12/23 11:59:30;;;;;;;11.02;10.52;;;12.70;74.80;;;;;;5008858;28;20041;-86
2021/12/23 12:01:56;;;;;;;11.30;10.80;;;12.90;74.60;;;;;;5009146;28;20049;-86
2021/12/23 12:04:27;;;;;;;10.13;9.63;;;13.00;74.60;;;;;;5009219;28;20045;-82
2021/12/23 12:06:53;;;;;;;9.90;9.40;;;13.00;74.50;;;;;;5009141;28;20533;-78
2021/12/23 12:09:20;;;;;;;11.80;11.23;;;13.10;74.50;;;;;;5008898;28;20034;-78
2021/12/23 12:11:58;;;;;;;16.05;15.27;;;13.10;74.70;;;;;;5010221;28;20034;-77
2021/12/23 12:14:41;;;;;;;14.45;13.75;;;13.10;74.90;;;;;;5010090;28;20410;-74
2021/12/23 12:17:26;;;;;;;14.48;13.43;;;13.10;75.00;;;;;;5008870;28;20388;-76
2021/12/23 12:20:08;;;;;;;12.02;11.43;;;13.00;75.10;;;;;;5010976;28;20038;-74
2021/12/23 12:22:46;;;;;;;12.68;12.07;;;13.00;75.30;;;;;;5010351;28;20034;-73
2021/12/23 12:25:36;;;;;;;13.32;12.43;;;13.00;75.40;;;;;;5006693;28;20038;-77
2021/12/23 12:28:02;;;;;;;11.85;11.25;;;12.90;75.60;;;;;;5003927;28;20042;-74
2021/12/23 12:30:55;;;;;;;13.82;13.13;;;12.80;75.80;;;;;;5004812;28;20471;-74
2021/12/23 12:33:24;;;;;;;11.48;10.98;;;12.80;76.20;;;;;;4994643;28;20050;-76
2021/12/23 12:35:51;;;;;;;11.15;10.55;;;12.70;76.10;;;;;;5010094;28;20030;-76
2021/12/23 12:38:21;;;;;;;11.25;10.65;;;12.70;76.30;;;;;;4994596;28;20049;-76
2021/12/23 12:40:57;;;;;;;10.90;10.40;;;12.80;76.20;;;;;;5009689;28;20045;-81
2021/12/23 12:46:12;;;;;;;11.48;10.77;;;13.00;75.90;;;;;;5014840;28;20030;-78
2021/12/23 12:48:58;;;;;;;10.50;10.00;;;13.00;75.80;;;;;;5018070;28;20041;-78
2021/12/23 12:51:29;;;;;;;11.05;10.55;;;13.10;75.80;;;;;;5003621;28;20026;-79
2021/12/23 12:54:03;;;;;;;12.57;11.88;;;13.20;76.50;;;;;;5008699;28;20045;-79
2021/12/23 12:56:33;;;;;;;16.83;12.27;;;13.20;75.50;;;;;;5011514;28;20041;-76
2021/12/23 12:58:59;;;;;;;10.82;10.32;;;13.20;75.60;;;;;;5009516;28;20040;-76
2021/12/23 13:01:46;;;;;;;12.48;11.77;;;13.30;75.70;;;;;;4991156;28;20038;-76
2021/12/23 13:04:33;;;;;;;12.73;12.13;;;13.20;75.80;;;;;;5008694;28;20038;-76
2021/12/23 13:07:13;;;;;;;12.95;12.25;;;13.20;76.10;;;;;;5001975;28;20125;-76
2021/12/23 13:10:05;;;;;;;13.90;13.20;;;13.10;76.10;;;;;;5018638;28;20021;-76
2021/12/23 13:12:47;;;;;;;12.18;11.43;;;13.00;76.30;;;;;;5023995;28;20041;-76
2021/12/23 13:15:31;;;;;;;13.15;12.45;;;13.00;77.30;;;;;;4995300;28;20038;-76
2021/12/23 13:18:18;;;;;;;11.95;11.35;;;12.90;76.50;;;;;;5008136;28;20406;-76
2021/12/23 13:20:50;;;;;;;11.88;11.27;;;12.80;76.70;;;;;;5007451;28;20487;-77
2021/12/23 13:23:36;;;;;;;11.73;11.23;;;12.80;76.80;;;;;;5010104;28;20045;-78
2021/12/23 13:26:03;;;;;;;14.23;13.52;;;12.70;76.90;;;;;;5015820;28;20033;-76
2021/12/23 13:28:38;;;;;;;13.98;13.30;;;12.70;77.00;;;;;;5012230;28;20136;-76
2021/12/23 13:31:07;;;;;;;14.30;13.25;;;12.70;77.00;;;;;;4990353;28;20034;-76
2021/12/23 13:33:45;;;;;;;13.68;12.98;;;12.70;77.00;;;;;;5009112;28;20049;-76
2021/12/23 13:36:15;;;;;;;12.95;12.35;;;12.70;77.10;;;;;;5022018;28;20026;-76
2021/12/23 13:38:42;;;;;;;13.18;12.35;;;12.70;77.00;;;;;;5010731;28;20048;-76
2021/12/23 13:41:36;;;;;;;13.35;12.68;;;12.70;77.10;;;;;;5009973;28;20379;-76
2021/12/23 13:44:14;;;;;;;13.57;12.93;;;12.70;77.20;;;;;;5007434;28;20050;-76
2021/12/23 13:46:41;;;;;;;12.38;11.77;;;12.70;77.20;;;;;;5009987;28;20049;-76
2021/12/23 13:49:07;;;;;;;14.75;13.70;;;12.60;77.20;;;;;;4991153;28;20057;-76
2021/12/23 13:51:36;;;;;;;12.70;12.10;;;12.60;77.30;;;;;;5009115;28;20029;-76
2021/12/23 13:54:15;;;;;;;13.50;12.90;;;12.50;77.30;;;;;;4995004;28;20045;-77
2021/12/23 13:56:46;;;;;;;14.55;13.75;;;12.50;77.40;;;;;;5012484;28;20355;-76
2021/12/23 13:59:19;;;;;;;;;;;12.50;77.50;;;;;;5010027;28;20029;-76
2021/12/23 14:02:00;;;;;;;12.20;11.60;;;12.40;77.50;;;;;;5007392;28;19917;-76
2021/12/23 14:04:33;;;;;;;11.82;11.23;;;12.40;77.50;;;;;;5004525;28;20395;-78
2021/12/23 14:06:59;;;;;;;11.43;10.82;;;12.40;77.60;;;;;;5008716;28;20030;-76
2021/12/23 14:09:33;;;;;;;9.98;9.50;;;12.40;77.60;;;;;;4992633;28;20510;-80
2021/12/23 14:12:00;;;;;;;10.93;10.25;;;12.30;77.60;;;;;;4990641;28;20440;-79
2021/12/23 14:14:27;;;;;;;10.90;10.30;;;12.30;77.70;;;;;;5010448;28;20062;-75
2021/12/23 14:16:53;;;;;;;10.63;9.95;;;12.30;77.70;;;;;;5013375;28;20042;-76